Fountain Lake, Arkansas
Current Conditions -  °F | °C
As of 7:53 PM on Friday 24 Oct 2014 (Local Time) from KHOT Reporting Station
Clear Clear  
Wind Chill: 62°   Ceiling: Unl
Heat Index: 62°   Visibility: 10mi
Dew Point: 57°   Wind: 3mph
Humidity: 84%   Direction: 50°NE
Pressure: 30.11"   Gusts: NA
Location:  34.5331°N, 93.0035°W
Report Text: KHOT 250053Z AUTO 05003KT 10SM CLR 17/14 A3011 RMK AO2 SLP192 T01670139
Loading
Personal Weather Stations






























Interactive Weather Map
Tropical Storm Tracking
New forecast layout! Learn more

10-Day Weather Forecast

Advertisements
Track Severe Weather on mobile